createdAt,value
2022-09-12T00:01:08.570Z,5.04
2022-09-12T00:06:40.156Z,3.69
2022-09-12T00:12:36.959Z,3.49
2022-09-12T00:18:12.175Z,4.23
2022-09-12T00:23:37.367Z,4.60
2022-09-12T00:29:04.837Z,4.17
2022-09-12T00:34:36.200Z,4.51
2022-09-12T00:40:12.843Z,4.90
2022-09-12T00:45:43.802Z,6.69
2022-09-12T00:51:07.851Z,5.23
2022-09-12T00:56:32.872Z,4.29
2022-09-12T01:02:06.547Z,4.12
2022-09-12T01:07:51.436Z,3.49
2022-09-12T01:13:19.811Z,4.57
2022-09-12T01:18:52.237Z,3.57
2022-09-12T01:24:31.847Z,4.96
2022-09-12T01:30:07.610Z,5.89
2022-09-12T01:36:00.818Z,4.18
2022-09-12T01:41:53.089Z,3.75
2022-09-12T01:47:26.357Z,5.19
2022-09-12T01:53:06.113Z,3.66
2022-09-12T01:58:43.050Z,4.25
2022-09-12T02:04:09.404Z,6.13
2022-09-12T02:09:46.822Z,4.53
2022-09-12T02:15:19.822Z,5.49
2022-09-12T02:20:48.796Z,6.74
2022-09-12T02:26:13.498Z,4.62
2022-09-12T02:31:37.552Z,5.03
2022-09-12T02:37:04.442Z,5.18
2022-09-12T02:42:27.993Z,6.00
2022-09-12T02:47:51.677Z,4.04
2022-09-12T02:53:16.081Z,6.04
2022-09-12T02:58:44.056Z,3.82
2022-09-12T03:04:08.744Z,5.76
2022-09-12T03:09:56.367Z,4.25
2022-09-12T03:15:30.080Z,5.14
2022-09-12T03:21:09.000Z,5.76
2022-09-12T03:26:35.063Z,4.21
2022-09-12T03:32:04.200Z,4.50
2022-09-12T03:37:29.467Z,3.57
2022-09-12T03:42:56.908Z,4.62
2022-09-12T03:48:28.141Z,4.07
2022-09-12T03:54:14.754Z,5.09
2022-09-12T03:59:34.513Z,4.45
2022-09-12T04:05:17.433Z,5.03
2022-09-12T04:10:46.985Z,4.01
2022-09-12T04:16:14.418Z,5.06
2022-09-12T04:21:42.600Z,5.04
2022-09-12T04:27:08.807Z,5.98
2022-09-12T04:32:35.909Z,4.38
2022-09-12T04:38:06.984Z,5.07
2022-09-12T04:43:32.580Z,4.74
2022-09-12T04:48:59.099Z,5.55
2022-09-12T04:54:28.112Z,6.23
2022-09-12T05:12:05.504Z,5.34
2022-09-12T05:17:24.851Z,5.16
2022-09-12T05:22:52.904Z,5.65
2022-09-12T05:28:19.502Z,6.02
2022-09-12T05:33:44.825Z,5.95
2022-09-12T05:39:10.844Z,6.85
2022-09-12T05:44:38.659Z,5.94
2022-09-12T05:50:03.352Z,7.21
2022-09-12T05:55:31.336Z,6.48
2022-09-12T06:00:58.163Z,8.63
2022-09-12T06:06:24.861Z,7.56
2022-09-12T06:11:50.786Z,7.34
2022-09-12T06:17:17.289Z,7.52
2022-09-12T06:22:45.107Z,8.64
2022-09-12T06:28:08.672Z,7.39
2022-09-12T06:33:30.231Z,7.41
2022-09-12T06:38:51.751Z,8.74
2022-09-12T06:44:16.257Z,7.66
2022-09-12T06:49:43.364Z,9.14
2022-09-12T06:55:05.414Z,7.45
2022-09-12T07:00:33.075Z,7.14
2022-09-12T07:05:57.392Z,7.53
2022-09-12T07:11:29.182Z,6.82
2022-09-12T07:16:56.574Z,8.48
2022-09-12T07:22:24.042Z,5.57
2022-09-12T07:27:51.590Z,5.08
2022-09-12T07:33:16.283Z,5.90
2022-09-12T07:38:42.750Z,5.16
2022-09-12T07:44:04.648Z,7.02
2022-09-12T07:49:28.150Z,6.01
2022-09-12T07:54:56.806Z,9.03
2022-09-12T08:00:25.657Z,6.71
2022-09-12T08:05:53.798Z,6.22
2022-09-12T08:11:26.564Z,5.39
2022-09-12T08:16:48.406Z,6.73
2022-09-12T08:22:10.426Z,7.05
2022-09-12T08:27:38.382Z,6.36
2022-09-12T08:33:01.333Z,5.33
2022-09-12T08:38:28.340Z,5.55
2022-09-12T08:43:53.216Z,5.77
2022-09-12T08:49:28.113Z,5.73
2022-09-12T08:54:55.820Z,4.66
2022-09-12T09:00:21.020Z,5.98
2022-09-12T09:05:46.914Z,6.92
2022-09-12T09:11:14.921Z,5.98
2022-09-12T09:16:42.690Z,6.02
2022-09-12T09:22:10.405Z,6.40
2022-09-12T09:27:40.899Z,4.59
2022-09-12T09:33:06.861Z,6.17
2022-09-12T09:38:37.386Z,4.34
2022-09-12T09:49:35.003Z,6.00
2022-09-12T09:55:02.104Z,4.93
2022-09-12T10:00:31.347Z,4.75
2022-09-12T10:06:00.018Z,4.33
2022-09-12T10:11:35.326Z,3.92
2022-09-12T10:16:56.861Z,4.54
2022-09-12T10:22:25.014Z,4.45
2022-09-12T10:27:47.723Z,4.59
2022-09-12T10:33:12.862Z,5.57
2022-09-12T10:38:35.184Z,4.38
2022-09-12T10:43:58.276Z,3.99
2022-09-12T10:49:25.138Z,4.08
2022-09-12T10:54:47.059Z,2.76
2022-09-12T11:00:11.109Z,2.99
2022-09-12T11:05:37.375Z,4.53
2022-09-12T11:11:13.654Z,3.88
2022-09-12T11:16:46.251Z,4.45
2022-09-12T11:22:14.377Z,3.69
2022-09-12T11:27:44.856Z,3.17
2022-09-12T11:33:32.725Z,4.87
2022-09-12T11:39:01.044Z,4.04
2022-09-12T11:44:30.147Z,4.36
2022-09-12T11:49:52.376Z,4.24
2022-09-12T11:55:19.733Z,3.46
2022-09-12T12:00:47.570Z,3.25
2022-09-12T12:06:13.771Z,5.64
2022-09-12T12:11:39.301Z,4.17
2022-09-12T12:17:05.651Z,3.44
2022-09-12T12:22:34.424Z,3.21
2022-09-12T12:28:00.480Z,3.32
2022-09-12T12:33:26.258Z,3.35
2022-09-12T12:39:12.731Z,2.97
2022-09-12T12:45:13.281Z,2.85
2022-09-12T12:51:12.505Z,3.29
2022-09-12T12:56:53.882Z,4.71
2022-09-12T13:02:35.638Z,4.41
2022-09-12T13:08:02.582Z,2.93
2022-09-12T13:13:30.168Z,2.78
2022-09-12T13:18:56.816Z,2.54
2022-09-12T13:24:21.276Z,4.06
2022-09-12T13:29:48.620Z,2.16
2022-09-12T13:35:22.697Z,2.31
2022-09-12T13:40:48.344Z,2.03
2022-09-12T13:46:20.473Z,2.80
2022-09-12T13:51:45.266Z,1.82
2022-09-12T13:57:15.069Z,3.14
2022-09-12T14:02:50.135Z,2.84
2022-09-12T14:08:15.439Z,2.27
2022-09-12T14:13:45.134Z,3.70
2022-09-12T14:19:10.295Z,2.27
2022-09-12T14:24:37.165Z,1.92
2022-09-12T14:30:03.948Z,1.75
2022-09-12T14:35:37.560Z,1.42
2022-09-12T14:41:03.227Z,2.19
2022-09-12T14:46:30.124Z,1.97
2022-09-12T14:51:54.893Z,1.75
2022-09-12T14:57:20.030Z,1.91
2022-09-12T15:02:54.343Z,1.66
2022-09-12T15:08:37.922Z,2.27
2022-09-12T15:14:05.239Z,1.84
2022-09-12T15:19:34.958Z,2.02
2022-09-12T15:25:01.698Z,2.14
2022-09-12T15:30:26.470Z,1.43
2022-09-12T15:35:54.213Z,1.47
2022-09-12T15:41:18.431Z,2.71
2022-09-12T15:46:41.440Z,1.29
2022-09-12T15:52:08.794Z,1.69
2022-09-12T15:57:35.892Z,1.32
2022-09-12T16:02:58.520Z,2.10
2022-09-12T16:08:25.667Z,2.77
2022-09-12T16:13:50.605Z,1.43
2022-09-12T16:19:18.918Z,0.75
2022-09-12T16:24:40.994Z,0.98
2022-09-12T16:30:08.392Z,1.06
2022-09-12T16:35:34.845Z,1.85
2022-09-12T16:41:02.799Z,1.72
2022-09-12T16:46:29.031Z,2.04
2022-09-12T16:51:54.378Z,1.26
2022-09-12T16:57:22.162Z,1.29
2022-09-12T17:02:47.553Z,1.98
2022-09-12T17:08:14.427Z,1.18
2022-09-12T17:14:03.216Z,2.94
2022-09-12T17:19:07.357Z,1.73
2022-09-12T17:24:35.442Z,1.64
2022-09-12T17:30:01.916Z,2.57
2022-09-12T17:35:27.306Z,2.61
2022-09-12T17:40:59.368Z,2.30
2022-09-12T17:46:22.617Z,1.96
2022-09-12T17:51:49.803Z,1.94
2022-09-12T17:57:17.969Z,1.41
2022-09-12T18:02:46.133Z,1.87
2022-09-12T18:08:08.207Z,2.42
2022-09-12T18:13:36.171Z,1.66
2022-09-12T18:19:02.127Z,3.07
2022-09-12T18:24:29.149Z,2.49
2022-09-12T18:30:17.132Z,2.31
2022-09-12T18:35:23.315Z,2.58
2022-09-12T18:40:47.806Z,2.34
2022-09-12T18:46:16.068Z,1.28
2022-09-12T18:51:37.012Z,2.03
2022-09-12T18:57:03.454Z,2.19
2022-09-12T19:02:29.650Z,1.60
2022-09-12T19:07:53.554Z,1.70
2022-09-12T19:13:18.116Z,3.30
2022-09-12T19:18:44.254Z,2.56
2022-09-12T19:24:10.694Z,1.55
2022-09-12T19:29:35.220Z,2.71
2022-09-12T19:34:56.915Z,1.66
2022-09-12T19:40:25.867Z,1.95
2022-09-12T19:45:51.184Z,1.99
2022-09-12T19:51:14.947Z,1.12
2022-09-12T19:56:38.517Z,1.16
2022-09-12T20:02:06.489Z,2.85
2022-09-12T20:07:33.298Z,2.37
2022-09-12T20:12:57.052Z,2.31
2022-09-12T20:18:23.095Z,1.19
2022-09-12T20:23:49.311Z,1.47
2022-09-12T20:29:14.834Z,1.54
2022-09-12T20:34:41.828Z,1.33
2022-09-12T20:40:09.019Z,1.38
2022-09-12T20:45:34.780Z,1.58
2022-09-12T20:51:02.859Z,1.45
2022-09-12T20:56:24.948Z,1.30
2022-09-12T21:01:49.415Z,1.11
2022-09-12T21:07:14.562Z,1.18
2022-09-12T21:12:42.132Z,1.94
2022-09-12T21:18:08.920Z,1.60
2022-09-12T21:23:36.902Z,3.21
2022-09-12T21:29:02.042Z,1.69
2022-09-12T21:34:28.877Z,1.33
2022-09-12T21:39:54.272Z,3.52
2022-09-12T21:45:21.261Z,1.68
2022-09-12T21:50:49.442Z,2.09
2022-09-12T21:56:17.282Z,1.10
2022-09-12T22:01:38.807Z,3.31
2022-09-12T22:07:04.563Z,1.77
2022-09-12T22:12:31.902Z,1.62
2022-09-12T22:17:57.581Z,2.54
2022-09-12T22:23:25.694Z,1.70
2022-09-12T22:28:53.448Z,1.55
2022-09-12T22:34:20.723Z,1.89
2022-09-12T22:39:45.903Z,1.45
2022-09-12T22:45:13.757Z,1.04
2022-09-12T22:50:40.156Z,1.67
2022-09-12T22:56:01.990Z,1.98
2022-09-12T23:01:24.163Z,3.01
2022-09-12T23:06:45.712Z,1.91
2022-09-12T23:12:07.922Z,1.32
2022-09-12T23:17:29.966Z,3.26
2022-09-12T23:22:53.010Z,1.53
2022-09-12T23:28:20.445Z,1.59
2022-09-12T23:33:47.440Z,2.81
2022-09-12T23:39:15.562Z,2.60
2022-09-12T23:44:38.996Z,1.71
2022-09-12T23:50:03.848Z,4.31
2022-09-12T23:55:30.752Z,2.12
